sensor_id;sensor_type;location;lat;lon;timestamp;temperature;humidity
4596;DHT22;2310;49.978;8.742;2022-08-14T00:03:22;24.00;82.70
4596;DHT22;2310;49.978;8.742;2022-08-14T00:07:22;23.90;85.10
4596;DHT22;2310;49.978;8.742;2022-08-14T00:11:23;23.90;87.10
4596;DHT22;2310;49.978;8.742;2022-08-14T00:15:29;23.90;89.80
4596;DHT22;2310;49.978;8.742;2022-08-14T00:19:31;23.70;91.20
4596;DHT22;2310;49.978;8.742;2022-08-14T00:23:32;23.70;92.30
4596;DHT22;2310;49.978;8.742;2022-08-14T00:27:34;23.60;93.60
4596;DHT22;2310;49.978;8.742;2022-08-14T00:31:38;23.60;95.80
4596;DHT22;2310;49.978;8.742;2022-08-14T00:35:41;23.70;96.90
4596;DHT22;2310;49.978;8.742;2022-08-14T00:39:44;23.70;97.80
4596;DHT22;2310;49.978;8.742;2022-08-14T00:43:47;23.60;99.60
4596;DHT22;2310;49.978;8.742;2022-08-14T00:47:49;23.60;99.90
4596;DHT22;2310;49.978;8.742;2022-08-14T00:51:50;23.70;99.90
4596;DHT22;2310;49.978;8.742;2022-08-14T00:55:53;23.60;99.90
4596;DHT22;2310;49.978;8.742;2022-08-14T00:59:56;23.50;99.90
4596;DHT22;2310;49.978;8.742;2022-08-14T01:04:00;23.50;99.90
4596;DHT22;2310;49.978;8.742;2022-08-14T01:08:04;23.50;99.90
4596;DHT22;2310;49.978;8.742;2022-08-14T01:12:08;23.50;99.90
4596;DHT22;2310;49.978;8.742;2022-08-14T01:16:14;23.40;99.90
4596;DHT22;2310;49.978;8.742;2022-08-14T01:20:16;23.50;99.90
4596;DHT22;2310;49.978;8.742;2022-08-14T01:24:40;23.50;99.90
4596;DHT22;2310;49.978;8.742;2022-08-14T01:28:41;23.30;99.90
4596;DHT22;2310;49.978;8.742;2022-08-14T01:32:44;23.30;99.90
4596;DHT22;2310;49.978;8.742;2022-08-14T01:36:48;23.10;99.90
4596;DHT22;2310;49.978;8.742;2022-08-14T01:40:50;23.00;99.90
4596;DHT22;2310;49.978;8.742;2022-08-14T01:44:53;23.10;99.90
4596;DHT22;2310;49.978;8.742;2022-08-14T01:48:58;23.30;99.90
4596;DHT22;2310;49.978;8.742;2022-08-14T01:53:00;23.40;99.90
4596;DHT22;2310;49.978;8.742;2022-08-14T01:57:02;23.50;99.90
4596;DHT22;2310;49.978;8.742;2022-08-14T02:01:05;23.40;99.90
4596;DHT22;2310;49.978;8.742;2022-08-14T02:05:11;23.40;99.90
4596;DHT22;2310;49.978;8.742;2022-08-14T02:09:12;23.30;99.90
4596;DHT22;2310;49.978;8.742;2022-08-14T02:13:15;23.40;99.90
4596;DHT22;2310;49.978;8.742;2022-08-14T02:17:18;23.30;99.90
4596;DHT22;2310;49.978;8.742;2022-08-14T02:21:24;23.20;99.90
4596;DHT22;2310;49.978;8.742;2022-08-14T02:25:29;23.00;99.90
4596;DHT22;2310;49.978;8.742;2022-08-14T02:29:31;22.80;99.90
4596;DHT22;2310;49.978;8.742;2022-08-14T02:33:35;22.70;99.90
4596;DHT22;2310;49.978;8.742;2022-08-14T02:37:38;22.50;99.90
4596;DHT22;2310;49.978;8.742;2022-08-14T02:41:43;22.30;99.90
4596;DHT22;2310;49.978;8.742;2022-08-14T02:45:46;22.20;99.90
4596;DHT22;2310;49.978;8.742;2022-08-14T02:49:50;22.10;99.90
4596;DHT22;2310;49.978;8.742;2022-08-14T02:53:53;22.30;99.90
4596;DHT22;2310;49.978;8.742;2022-08-14T02:57:54;22.30;99.90
4596;DHT22;2310;49.978;8.742;2022-08-14T03:01:58;22.30;99.90
4596;DHT22;2310;49.978;8.742;2022-08-14T03:06:04;22.50;99.90
4596;DHT22;2310;49.978;8.742;2022-08-14T03:10:06;22.70;99.90
4596;DHT22;2310;49.978;8.742;2022-08-14T03:14:11;22.70;99.90
4596;DHT22;2310;49.978;8.742;2022-08-14T03:18:14;22.80;99.90
4596;DHT22;2310;49.978;8.742;2022-08-14T03:22:17;22.90;99.90
4596;DHT22;2310;49.978;8.742;2022-08-14T03:26:19;22.80;99.90
4596;DHT22;2310;49.978;8.742;2022-08-14T03:30:26;22.90;99.90
4596;DHT22;2310;49.978;8.742;2022-08-14T03:34:29;22.80;99.90
4596;DHT22;2310;49.978;8.742;2022-08-14T03:38:33;22.80;99.90
4596;DHT22;2310;49.978;8.742;2022-08-14T03:42:36;22.80;99.90
4596;DHT22;2310;49.978;8.742;2022-08-14T03:46:39;22.70;99.90
4596;DHT22;2310;49.978;8.742;2022-08-14T03:50:46;22.70;99.90
4596;DHT22;2310;49.978;8.742;2022-08-14T03:54:49;22.70;99.90
4596;DHT22;2310;49.978;8.742;2022-08-14T03:58:55;22.70;99.90
4596;DHT22;2310;49.978;8.742;2022-08-14T04:02:59;22.60;99.90
4596;DHT22;2310;49.978;8.742;2022-08-14T04:07:00;22.60;99.90
4596;DHT22;2310;49.978;8.742;2022-08-14T04:11:01;22.60;99.90
4596;DHT22;2310;49.978;8.742;2022-08-14T04:15:05;22.50;99.90
4596;DHT22;2310;49.978;8.742;2022-08-14T04:19:08;22.50;99.90
4596;DHT22;2310;49.978;8.742;2022-08-14T04:23:10;22.30;99.90
4596;DHT22;2310;49.978;8.742;2022-08-14T04:27:13;22.40;99.90
4596;DHT22;2310;49.978;8.742;2022-08-14T04:31:17;22.50;99.90
4596;DHT22;2310;49.978;8.742;2022-08-14T04:35:21;22.70;99.90
4596;DHT22;2310;49.978;8.742;2022-08-14T04:39:24;22.40;99.90
4596;DHT22;2310;49.978;8.742;2022-08-14T04:43:45;22.60;99.90
4596;DHT22;2310;49.978;8.742;2022-08-14T04:51:10;22.60;99.90
4596;DHT22;2310;49.978;8.742;2022-08-14T04:55:12;22.80;99.90
4596;DHT22;2310;49.978;8.742;2022-08-14T04:59:14;23.20;99.90
4596;DHT22;2310;49.978;8.742;2022-08-14T05:03:20;23.40;99.90
4596;DHT22;2310;49.978;8.742;2022-08-14T05:07:23;23.40;99.90
4596;DHT22;2310;49.978;8.742;2022-08-14T05:11:26;23.40;99.90
4596;DHT22;2310;49.978;8.742;2022-08-14T05:15:28;23.70;99.90
4596;DHT22;2310;49.978;8.742;2022-08-14T05:19:32;23.80;99.90
4596;DHT22;2310;49.978;8.742;2022-08-14T05:23:36;23.70;99.90
4596;DHT22;2310;49.978;8.742;2022-08-14T05:27:38;23.60;99.90
4596;DHT22;2310;49.978;8.742;2022-08-14T05:31:40;23.70;99.90
4596;DHT22;2310;49.978;8.742;2022-08-14T05:35:42;23.80;99.90
4596;DHT22;2310;49.978;8.742;2022-08-14T05:39:46;23.80;99.90
4596;DHT22;2310;49.978;8.742;2022-08-14T05:43:48;24.00;99.90
4596;DHT22;2310;49.978;8.742;2022-08-14T05:47:51;23.90;99.90
4596;DHT22;2310;49.978;8.742;2022-08-14T05:51:53;23.90;99.90
4596;DHT22;2310;49.978;8.742;2022-08-14T05:55:55;23.90;99.90
4596;DHT22;2310;49.978;8.742;2022-08-14T05:59:56;23.90;99.90
4596;DHT22;2310;49.978;8.742;2022-08-14T06:03:59;23.70;99.90
4596;DHT22;2310;49.978;8.742;2022-08-14T06:08:01;23.70;99.90
4596;DHT22;2310;49.978;8.742;2022-08-14T06:12:05;23.70;99.90
4596;DHT22;2310;49.978;8.742;2022-08-14T06:16:08;23.40;99.90
4596;DHT22;2310;49.978;8.742;2022-08-14T06:20:11;23.60;99.90
4596;DHT22;2310;49.978;8.742;2022-08-14T06:24:12;23.90;99.90
4596;DHT22;2310;49.978;8.742;2022-08-14T06:28:20;24.00;99.90
4596;DHT22;2310;49.978;8.742;2022-08-14T06:32:24;24.40;99.90
4596;DHT22;2310;49.978;8.742;2022-08-14T06:36:27;24.20;99.90
4596;DHT22;2310;49.978;8.742;2022-08-14T06:40:32;23.80;99.90
4596;DHT22;2310;49.978;8.742;2022-08-14T06:44:35;24.30;99.90
4596;DHT22;2310;49.978;8.742;2022-08-14T06:48:36;24.40;99.90
4596;DHT22;2310;49.978;8.742;2022-08-14T06:52:40;24.40;99.90
4596;DHT22;2310;49.978;8.742;2022-08-14T06:56:43;24.40;99.90
4596;DHT22;2310;49.978;8.742;2022-08-14T07:00:46;24.50;99.90
4596;DHT22;2310;49.978;8.742;2022-08-14T07:05:07;24.90;99.90
4596;DHT22;2310;49.978;8.742;2022-08-14T07:09:27;24.90;99.90
4596;DHT22;2310;49.978;8.742;2022-08-14T07:13:30;25.20;99.90
4596;DHT22;2310;49.978;8.742;2022-08-14T07:17:31;25.00;99.90
4596;DHT22;2310;49.978;8.742;2022-08-14T07:21:35;25.10;99.90
4596;DHT22;2310;49.978;8.742;2022-08-14T07:25:39;25.20;99.90
4596;DHT22;2310;49.978;8.742;2022-08-14T07:29:42;25.20;99.90
4596;DHT22;2310;49.978;8.742;2022-08-14T07:33:45;25.60;99.90
4596;DHT22;2310;49.978;8.742;2022-08-14T07:37:48;25.80;99.90
4596;DHT22;2310;49.978;8.742;2022-08-14T07:41:51;25.90;99.90
4596;DHT22;2310;49.978;8.742;2022-08-14T07:45:53;25.90;99.90
4596;DHT22;2310;49.978;8.742;2022-08-14T07:50:03;25.80;99.90
4596;DHT22;2310;49.978;8.742;2022-08-14T07:54:06;25.80;99.90
4596;DHT22;2310;49.978;8.742;2022-08-14T07:58:09;26.10;99.90
4596;DHT22;2310;49.978;8.742;2022-08-14T08:02:14;26.30;99.90
4596;DHT22;2310;49.978;8.742;2022-08-14T08:06:17;26.00;99.90
4596;DHT22;2310;49.978;8.742;2022-08-14T08:10:26;26.30;99.90
4596;DHT22;2310;49.978;8.742;2022-08-14T08:14:36;26.60;99.90
4596;DHT22;2310;49.978;8.742;2022-08-14T08:18:40;27.10;99.90
4596;DHT22;2310;49.978;8.742;2022-08-14T08:22:41;27.60;98.20
4596;DHT22;2310;49.978;8.742;2022-08-14T08:26:45;27.80;96.00
4596;DHT22;2310;49.978;8.742;2022-08-14T08:30:48;28.10;93.80
4596;DHT22;2310;49.978;8.742;2022-08-14T08:34:50;28.40;92.50
4596;DHT22;2310;49.978;8.742;2022-08-14T08:38:58;28.80;90.40
4596;DHT22;2310;49.978;8.742;2022-08-14T08:42:58;29.10;86.60
4596;DHT22;2310;49.978;8.742;2022-08-14T08:47:02;29.80;78.60
4596;DHT22;2310;49.978;8.742;2022-08-14T08:51:05;29.80;78.10
4596;DHT22;2310;49.978;8.742;2022-08-14T08:55:07;30.50;74.50
4596;DHT22;2310;49.978;8.742;2022-08-14T08:59:27;30.70;65.80
4596;DHT22;2310;49.978;8.742;2022-08-14T09:03:31;31.00;64.80
4596;DHT22;2310;49.978;8.742;2022-08-14T09:07:32;31.40;64.10
4596;DHT22;2310;49.978;8.742;2022-08-14T09:11:34;31.40;62.80
4596;DHT22;2310;49.978;8.742;2022-08-14T09:15:39;31.60;64.30
4596;DHT22;2310;49.978;8.742;2022-08-14T09:19:43;31.70;62.10
4596;DHT22;2310;49.978;8.742;2022-08-14T09:23:45;31.50;60.00
4596;DHT22;2310;49.978;8.742;2022-08-14T09:27:48;32.30;62.10
4596;DHT22;2310;49.978;8.742;2022-08-14T09:31:57;32.20;57.90
4596;DHT22;2310;49.978;8.742;2022-08-14T09:45:53;32.60;53.80
4596;DHT22;2310;49.978;8.742;2022-08-14T09:49:07;32.60;53.90
4596;DHT22;2310;49.978;8.742;2022-08-14T09:53:10;32.30;53.50
4596;DHT22;2310;49.978;8.742;2022-08-14T09:57:25;32.40;52.40
4596;DHT22;2310;49.978;8.742;2022-08-14T10:01:34;32.60;54.20
4596;DHT22;2310;49.978;8.742;2022-08-14T10:05:35;33.00;51.90
4596;DHT22;2310;49.978;8.742;2022-08-14T10:09:50;32.90;50.60
4596;DHT22;2310;49.978;8.742;2022-08-14T10:13:52;32.50;50.60
4596;DHT22;2310;49.978;8.742;2022-08-14T10:22:09;33.50;47.80
4596;DHT22;2310;49.978;8.742;2022-08-14T10:26:15;33.20;46.90
4596;DHT22;2310;49.978;8.742;2022-08-14T10:30:19;32.90;47.80
4596;DHT22;2310;49.978;8.742;2022-08-14T10:34:22;33.50;47.00
4596;DHT22;2310;49.978;8.742;2022-08-14T10:38:35;33.80;45.70
4596;DHT22;2310;49.978;8.742;2022-08-14T10:42:38;33.90;45.20
4596;DHT22;2310;49.978;8.742;2022-08-14T10:50:46;34.20;44.40
4596;DHT22;2310;49.978;8.742;2022-08-14T10:54:50;34.60;41.80
4596;DHT22;2310;49.978;8.742;2022-08-14T10:58:59;34.40;42.30
4596;DHT22;2310;49.978;8.742;2022-08-14T11:03:07;33.90;40.90
4596;DHT22;2310;49.978;8.742;2022-08-14T11:07:14;34.50;40.80
4596;DHT22;2310;49.978;8.742;2022-08-14T11:11:18;34.80;40.60
4596;DHT22;2310;49.978;8.742;2022-08-14T11:15:22;35.00;39.40
4596;DHT22;2310;49.978;8.742;2022-08-14T11:19:24;34.60;39.40
4596;DHT22;2310;49.978;8.742;2022-08-14T11:23:29;34.70;40.40
4596;DHT22;2310;49.978;8.742;2022-08-14T11:27:33;35.10;41.00
4596;DHT22;2310;49.978;8.742;2022-08-14T11:31:36;35.40;39.20
4596;DHT22;2310;49.978;8.742;2022-08-14T11:35:39;34.60;39.60
4596;DHT22;2310;49.978;8.742;2022-08-14T11:39:44;35.30;40.80
4596;DHT22;2310;49.978;8.742;2022-08-14T11:43:48;35.50;39.60
4596;DHT22;2310;49.978;8.742;2022-08-14T11:47:52;35.40;39.60
4596;DHT22;2310;49.978;8.742;2022-08-14T11:51:56;34.40;40.40
4596;DHT22;2310;49.978;8.742;2022-08-14T11:56:03;34.60;39.90
4596;DHT22;2310;49.978;8.742;2022-08-14T12:00:14;35.40;40.30
4596;DHT22;2310;49.978;8.742;2022-08-14T12:04:20;35.60;38.80
4596;DHT22;2310;49.978;8.742;2022-08-14T12:08:31;35.40;38.90
4596;DHT22;2310;49.978;8.742;2022-08-14T12:12:30;36.00;39.60
4596;DHT22;2310;49.978;8.742;2022-08-14T12:16:34;35.80;38.40
4596;DHT22;2310;49.978;8.742;2022-08-14T12:20:39;35.40;38.40
4596;DHT22;2310;49.978;8.742;2022-08-14T12:24:48;35.10;38.40
4596;DHT22;2310;49.978;8.742;2022-08-14T12:28:50;35.00;38.50
4596;DHT22;2310;49.978;8.742;2022-08-14T12:32:53;35.20;39.30
4596;DHT22;2310;49.978;8.742;2022-08-14T12:37:01;35.40;39.10
4596;DHT22;2310;49.978;8.742;2022-08-14T12:41:13;35.30;39.10
4596;DHT22;2310;49.978;8.742;2022-08-14T12:45:17;35.20;38.60
4596;DHT22;2310;49.978;8.742;2022-08-14T12:49:22;35.40;39.10
4596;DHT22;2310;49.978;8.742;2022-08-14T12:53:34;35.40;39.00
4596;DHT22;2310;49.978;8.742;2022-08-14T12:57:41;34.50;39.80
4596;DHT22;2310;49.978;8.742;2022-08-14T13:01:44;34.60;39.60
4596;DHT22;2310;49.978;8.742;2022-08-14T13:05:48;34.90;39.40
4596;DHT22;2310;49.978;8.742;2022-08-14T13:09:56;34.30;39.70
4596;DHT22;2310;49.978;8.742;2022-08-14T13:13:58;34.40;39.50
4596;DHT22;2310;49.978;8.742;2022-08-14T13:18:01;34.60;39.10
4596;DHT22;2310;49.978;8.742;2022-08-14T13:22:07;34.90;38.60
4596;DHT22;2310;49.978;8.742;2022-08-14T13:26:10;34.90;39.00
4596;DHT22;2310;49.978;8.742;2022-08-14T13:30:13;34.70;38.70
4596;DHT22;2310;49.978;8.742;2022-08-14T13:34:22;35.20;37.50
4596;DHT22;2310;49.978;8.742;2022-08-14T13:38:25;35.50;36.40
4596;DHT22;2310;49.978;8.742;2022-08-14T13:42:28;35.10;37.00
4596;DHT22;2310;49.978;8.742;2022-08-14T13:46:31;35.10;37.40
4596;DHT22;2310;49.978;8.742;2022-08-14T13:50:33;35.10;36.90
4596;DHT22;2310;49.978;8.742;2022-08-14T13:54:37;35.10;37.90
4596;DHT22;2310;49.978;8.742;2022-08-14T13:58:41;35.40;37.30
4596;DHT22;2310;49.978;8.742;2022-08-14T14:02:46;36.00;36.40
4596;DHT22;2310;49.978;8.742;2022-08-14T14:06:49;36.10;36.60
4596;DHT22;2310;49.978;8.742;2022-08-14T14:10:54;35.40;36.80
4596;DHT22;2310;49.978;8.742;2022-08-14T14:14:58;35.00;38.20
4596;DHT22;2310;49.978;8.742;2022-08-14T14:19:02;35.40;38.10
4596;DHT22;2310;49.978;8.742;2022-08-14T14:23:06;35.00;37.40
4596;DHT22;2310;49.978;8.742;2022-08-14T14:27:12;34.60;38.30
4596;DHT22;2310;49.978;8.742;2022-08-14T14:31:22;34.80;38.50
4596;DHT22;2310;49.978;8.742;2022-08-14T14:35:26;33.80;39.20
4596;DHT22;2310;49.978;8.742;2022-08-14T14:39:31;34.30;38.60
4596;DHT22;2310;49.978;8.742;2022-08-14T14:43:37;34.40;38.50
4596;DHT22;2310;49.978;8.742;2022-08-14T14:47:47;34.60;38.40
4596;DHT22;2310;49.978;8.742;2022-08-14T14:51:49;34.40;38.40
4596;DHT22;2310;49.978;8.742;2022-08-14T14:55:52;34.10;39.10
4596;DHT22;2310;49.978;8.742;2022-08-14T14:59:56;33.10;40.30
4596;DHT22;2310;49.978;8.742;2022-08-14T15:03:58;32.80;40.70
4596;DHT22;2310;49.978;8.742;2022-08-14T15:08:04;33.10;40.50
4596;DHT22;2310;49.978;8.742;2022-08-14T15:12:07;33.50;40.30
4596;DHT22;2310;49.978;8.742;2022-08-14T15:16:11;33.60;40.20
4596;DHT22;2310;49.978;8.742;2022-08-14T15:20:14;33.70;39.50
4596;DHT22;2310;49.978;8.742;2022-08-14T15:24:18;34.00;40.00
4596;DHT22;2310;49.978;8.742;2022-08-14T15:28:22;34.40;39.60
4596;DHT22;2310;49.978;8.742;2022-08-14T15:32:24;34.80;38.60
4596;DHT22;2310;49.978;8.742;2022-08-14T15:36:25;34.80;39.40
4596;DHT22;2310;49.978;8.742;2022-08-14T15:40:30;34.10;38.90
4596;DHT22;2310;49.978;8.742;2022-08-14T15:44:31;34.10;38.70
4596;DHT22;2310;49.978;8.742;2022-08-14T15:48:35;34.00;38.80
4596;DHT22;2310;49.978;8.742;2022-08-14T15:52:39;33.50;39.10
4596;DHT22;2310;49.978;8.742;2022-08-14T15:56:43;33.70;39.40
4596;DHT22;2310;49.978;8.742;2022-08-14T16:00:47;33.70;39.40
4596;DHT22;2310;49.978;8.742;2022-08-14T16:05:07;33.60;39.50
4596;DHT22;2310;49.978;8.742;2022-08-14T16:09:10;33.40;40.30
4596;DHT22;2310;49.978;8.742;2022-08-14T16:13:14;33.20;40.50
4596;DHT22;2310;49.978;8.742;2022-08-14T16:17:17;33.30;41.00
4596;DHT22;2310;49.978;8.742;2022-08-14T16:21:21;33.60;40.70
4596;DHT22;2310;49.978;8.742;2022-08-14T16:25:22;33.70;40.60
4596;DHT22;2310;49.978;8.742;2022-08-14T16:29:26;34.00;40.80
4596;DHT22;2310;49.978;8.742;2022-08-14T16:33:30;34.00;39.00
4596;DHT22;2310;49.978;8.742;2022-08-14T16:37:40;33.90;40.00
4596;DHT22;2310;49.978;8.742;2022-08-14T16:41:43;33.70;39.20
4596;DHT22;2310;49.978;8.742;2022-08-14T16:45:47;33.70;40.10
4596;DHT22;2310;49.978;8.742;2022-08-14T16:49:50;33.40;39.40
4596;DHT22;2310;49.978;8.742;2022-08-14T16:53:58;33.10;39.80
4596;DHT22;2310;49.978;8.742;2022-08-14T16:58:01;32.80;40.00
4596;DHT22;2310;49.978;8.742;2022-08-14T17:02:03;32.70;40.60
4596;DHT22;2310;49.978;8.742;2022-08-14T17:06:06;32.80;40.60
4596;DHT22;2310;49.978;8.742;2022-08-14T17:10:10;32.60;40.50
4596;DHT22;2310;49.978;8.742;2022-08-14T17:14:13;32.60;41.20
4596;DHT22;2310;49.978;8.742;2022-08-14T17:18:32;32.50;41.30
4596;DHT22;2310;49.978;8.742;2022-08-14T17:22:40;32.50;41.40
4596;DHT22;2310;49.978;8.742;2022-08-14T17:26:49;32.50;41.40
4596;DHT22;2310;49.978;8.742;2022-08-14T17:30:56;32.20;41.60
4596;DHT22;2310;49.978;8.742;2022-08-14T17:34:58;32.20;42.10
4596;DHT22;2310;49.978;8.742;2022-08-14T17:39:08;32.40;41.90
4596;DHT22;2310;49.978;8.742;2022-08-14T17:43:12;32.50;42.10
4596;DHT22;2310;49.978;8.742;2022-08-14T17:47:13;32.60;41.80
4596;DHT22;2310;49.978;8.742;2022-08-14T17:51:17;32.50;42.10
4596;DHT22;2310;49.978;8.742;2022-08-14T17:55:20;32.30;41.90
4596;DHT22;2310;49.978;8.742;2022-08-14T17:59:27;32.40;42.20
4596;DHT22;2310;49.978;8.742;2022-08-14T18:03:29;32.20;42.60
4596;DHT22;2310;49.978;8.742;2022-08-14T18:07:33;32.20;42.60
4596;DHT22;2310;49.978;8.742;2022-08-14T18:11:37;32.20;43.80
4596;DHT22;2310;49.978;8.742;2022-08-14T18:15:41;31.90;43.10
4596;DHT22;2310;49.978;8.742;2022-08-14T18:19:47;31.70;45.00
4596;DHT22;2310;49.978;8.742;2022-08-14T18:23:52;31.50;46.20
4596;DHT22;2310;49.978;8.742;2022-08-14T18:27:55;31.40;47.20
4596;DHT22;2310;49.978;8.742;2022-08-14T18:31:58;31.40;47.80
4596;DHT22;2310;49.978;8.742;2022-08-14T18:36:00;31.40;48.10
4596;DHT22;2310;49.978;8.742;2022-08-14T18:45:13;31.00;49.20
4596;DHT22;2310;49.978;8.742;2022-08-14T18:48:39;31.00;49.50
4596;DHT22;2310;49.978;8.742;2022-08-14T18:52:44;30.90;49.80
4596;DHT22;2310;49.978;8.742;2022-08-14T18:56:58;30.80;49.50
4596;DHT22;2310;49.978;8.742;2022-08-14T19:01:01;30.70;50.30
4596;DHT22;2310;49.978;8.742;2022-08-14T19:05:05;30.60;50.20
4596;DHT22;2310;49.978;8.742;2022-08-14T19:09:49;30.20;50.80
4596;DHT22;2310;49.978;8.742;2022-08-14T19:13:14;29.20;52.60
4596;DHT22;2310;49.978;8.742;2022-08-14T19:17:38;28.60;53.60
4596;DHT22;2310;49.978;8.742;2022-08-14T19:21:53;28.80;53.00
4596;DHT22;2310;49.978;8.742;2022-08-14T19:26:02;28.90;53.20
4596;DHT22;2310;49.978;8.742;2022-08-14T19:34:42;29.00;52.60
4596;DHT22;2310;49.978;8.742;2022-08-14T19:42:54;29.00;53.40
4596;DHT22;2310;49.978;8.742;2022-08-14T19:46:59;29.00;54.00
4596;DHT22;2310;49.978;8.742;2022-08-14T19:51:04;28.50;54.40
4596;DHT22;2310;49.978;8.742;2022-08-14T19:55:19;28.20;54.60
4596;DHT22;2310;49.978;8.742;2022-08-14T19:59:18;28.40;54.70
4596;DHT22;2310;49.978;8.742;2022-08-14T20:03:20;28.60;55.10
4596;DHT22;2310;49.978;8.742;2022-08-14T20:07:32;28.20;55.50
4596;DHT22;2310;49.978;8.742;2022-08-14T20:11:40;28.10;56.30
4596;DHT22;2310;49.978;8.742;2022-08-14T20:15:45;28.10;55.90
4596;DHT22;2310;49.978;8.742;2022-08-14T20:19:48;28.10;55.80
4596;DHT22;2310;49.978;8.742;2022-08-14T20:28:29;28.30;56.70
4596;DHT22;2310;49.978;8.742;2022-08-14T20:32:38;28.20;56.50
4596;DHT22;2310;49.978;8.742;2022-08-14T20:36:44;28.10;57.20
4596;DHT22;2310;49.978;8.742;2022-08-14T20:40:51;28.00;57.70
4596;DHT22;2310;49.978;8.742;2022-08-14T20:44:58;28.00;57.80
4596;DHT22;2310;49.978;8.742;2022-08-14T20:49:25;27.90;59.30
4596;DHT22;2310;49.978;8.742;2022-08-14T20:53:28;27.80;59.90
4596;DHT22;2310;49.978;8.742;2022-08-14T20:57:36;27.60;59.50
4596;DHT22;2310;49.978;8.742;2022-08-14T21:01:39;27.50;59.60
4596;DHT22;2310;49.978;8.742;2022-08-14T21:05:41;27.40;60.60
4596;DHT22;2310;49.978;8.742;2022-08-14T21:09:50;27.20;60.40
4596;DHT22;2310;49.978;8.742;2022-08-14T21:13:55;27.20;61.70
4596;DHT22;2310;49.978;8.742;2022-08-14T21:17:58;27.10;61.80
4596;DHT22;2310;49.978;8.742;2022-08-14T21:22:00;27.20;62.60
4596;DHT22;2310;49.978;8.742;2022-08-14T21:26:01;27.10;63.80
4596;DHT22;2310;49.978;8.742;2022-08-14T21:30:06;27.00;66.10
4596;DHT22;2310;49.978;8.742;2022-08-14T21:34:10;27.00;65.60
4596;DHT22;2310;49.978;8.742;2022-08-14T21:38:14;27.00;65.40
4596;DHT22;2310;49.978;8.742;2022-08-14T21:42:17;26.60;66.50
4596;DHT22;2310;49.978;8.742;2022-08-14T21:46:18;26.00;68.80
4596;DHT22;2310;49.978;8.742;2022-08-14T21:50:20;25.10;76.80
4596;DHT22;2310;49.978;8.742;2022-08-14T21:54:32;25.50;80.80
4596;DHT22;2310;49.978;8.742;2022-08-14T21:58:36;25.80;78.90
4596;DHT22;2310;49.978;8.742;2022-08-14T22:02:39;26.00;73.50
4596;DHT22;2310;49.978;8.742;2022-08-14T22:06:45;26.30;72.60
4596;DHT22;2310;49.978;8.742;2022-08-14T22:10:48;26.40;75.20
4596;DHT22;2310;49.978;8.742;2022-08-14T22:14:52;26.40;72.70
4596;DHT22;2310;49.978;8.742;2022-08-14T22:18:55;26.70;72.50
4596;DHT22;2310;49.978;8.742;2022-08-14T22:23:01;26.90;69.70
4596;DHT22;2310;49.978;8.742;2022-08-14T22:27:04;27.10;68.50
4596;DHT22;2310;49.978;8.742;2022-08-14T22:31:11;27.20;70.30
4596;DHT22;2310;49.978;8.742;2022-08-14T22:35:14;27.10;66.70
4596;DHT22;2310;49.978;8.742;2022-08-14T22:39:20;26.70;67.70
4596;DHT22;2310;49.978;8.742;2022-08-14T22:43:23;26.60;67.20
4596;DHT22;2310;49.978;8.742;2022-08-14T22:47:25;26.50;65.80
4596;DHT22;2310;49.978;8.742;2022-08-14T22:51:28;26.40;66.30
4596;DHT22;2310;49.978;8.742;2022-08-14T22:55:29;26.00;65.30
4596;DHT22;2310;49.978;8.742;2022-08-14T22:59:33;25.80;67.40
4596;DHT22;2310;49.978;8.742;2022-08-14T23:03:38;25.50;66.20
4596;DHT22;2310;49.978;8.742;2022-08-14T23:07:42;25.80;65.90
4596;DHT22;2310;49.978;8.742;2022-08-14T23:11:45;26.30;65.20
4596;DHT22;2310;49.978;8.742;2022-08-14T23:15:47;26.40;64.80
4596;DHT22;2310;49.978;8.742;2022-08-14T23:19:48;26.50;63.10
4596;DHT22;2310;49.978;8.742;2022-08-14T23:23:53;26.40;63.10
4596;DHT22;2310;49.978;8.742;2022-08-14T23:27:55;26.30;63.20
4596;DHT22;2310;49.978;8.742;2022-08-14T23:31:58;26.10;62.90
4596;DHT22;2310;49.978;8.742;2022-08-14T23:36:00;26.10;64.00
4596;DHT22;2310;49.978;8.742;2022-08-14T23:40:04;25.90;63.70
4596;DHT22;2310;49.978;8.742;2022-08-14T23:44:08;25.70;65.90
4596;DHT22;2310;49.978;8.742;2022-08-14T23:48:11;25.40;64.70
4596;DHT22;2310;49.978;8.742;2022-08-14T23:52:13;25.30;63.90
4596;DHT22;2310;49.978;8.742;2022-08-14T23:56:23;25.20;63.70
